sensor_id;sensor_type;location;lat;lon;timestamp;P1;durP1;ratioP1;P2;durP2;ratioP2
68140;SDS011;54941;52.220;104.306;2023-02-28T00:00:00;17.73;;;8.75;;
68140;SDS011;54941;52.220;104.306;2023-02-28T00:02:29;16.38;;;7.40;;
68140;SDS011;54941;52.220;104.306;2023-02-28T00:04:55;16.95;;;8.13;;
68140;SDS011;54941;52.220;104.306;2023-02-28T00:07:22;19.38;;;8.70;;
68140;SDS011;54941;52.220;104.306;2023-02-28T00:09:48;19.60;;;9.35;;
68140;SDS011;54941;52.220;104.306;2023-02-28T00:12:15;21.35;;;9.02;;
68140;SDS011;54941;52.220;104.306;2023-02-28T00:14:41;22.58;;;8.00;;
68140;SDS011;54941;52.220;104.306;2023-02-28T00:17:07;18.10;;;9.00;;
68140;SDS011;54941;52.220;104.306;2023-02-28T00:19:35;16.38;;;8.45;;
68140;SDS011;54941;52.220;104.306;2023-02-28T00:22:02;19.45;;;8.25;;
68140;SDS011;54941;52.220;104.306;2023-02-28T00:24:28;17.73;;;7.65;;
68140;SDS011;54941;52.220;104.306;2023-02-28T00:26:54;19.55;;;8.07;;
68140;SDS011;54941;52.220;104.306;2023-02-28T00:29:21;13.57;;;5.95;;
68140;SDS011;54941;52.220;104.306;2023-02-28T00:31:47;16.85;;;6.75;;
68140;SDS011;54941;52.220;104.306;2023-02-28T00:34:14;17.38;;;7.63;;
68140;SDS011;54941;52.220;104.306;2023-02-28T00:36:41;18.70;;;8.02;;
68140;SDS011;54941;52.220;104.306;2023-02-28T00:39:08;18.15;;;8.05;;
68140;SDS011;54941;52.220;104.306;2023-02-28T00:41:34;15.60;;;7.03;;
68140;SDS011;54941;52.220;104.306;2023-02-28T00:44:01;15.18;;;6.90;;
68140;SDS011;54941;52.220;104.306;2023-02-28T00:46:27;17.67;;;7.78;;
68140;SDS011;54941;52.220;104.306;2023-02-28T00:48:53;13.07;;;6.90;;
68140;SDS011;54941;52.220;104.306;2023-02-28T00:51:20;18.95;;;7.50;;
68140;SDS011;54941;52.220;104.306;2023-02-28T00:53:48;17.38;;;8.40;;
68140;SDS011;54941;52.220;104.306;2023-02-28T00:56:14;21.35;;;9.48;;
68140;SDS011;54941;52.220;104.306;2023-02-28T00:58:41;22.58;;;9.45;;
68140;SDS011;54941;52.220;104.306;2023-02-28T01:01:07;27.67;;;12.75;;
68140;SDS011;54941;52.220;104.306;2023-02-28T01:03:34;29.52;;;11.43;;
68140;SDS011;54941;52.220;104.306;2023-02-28T01:06:00;20.48;;;8.75;;
68140;SDS011;54941;52.220;104.306;2023-02-28T01:08:27;22.48;;;10.00;;
68140;SDS011;54941;52.220;104.306;2023-02-28T01:10:55;26.63;;;12.27;;
68140;SDS011;54941;52.220;104.306;2023-02-28T01:13:21;27.58;;;12.32;;
68140;SDS011;54941;52.220;104.306;2023-02-28T01:15:49;24.75;;;10.10;;
68140;SDS011;54941;52.220;104.306;2023-02-28T01:18:16;21.25;;;10.07;;
68140;SDS011;54941;52.220;104.306;2023-02-28T01:20:43;24.20;;;10.82;;
68140;SDS011;54941;52.220;104.306;2023-02-28T01:23:09;25.25;;;11.13;;
68140;SDS011;54941;52.220;104.306;2023-02-28T01:25:36;22.45;;;11.88;;
68140;SDS011;54941;52.220;104.306;2023-02-28T01:28:04;22.00;;;9.15;;
68140;SDS011;54941;52.220;104.306;2023-02-28T01:30:31;21.35;;;9.93;;
68140;SDS011;54941;52.220;104.306;2023-02-28T01:32:57;24.95;;;12.00;;
68140;SDS011;54941;52.220;104.306;2023-02-28T01:35:24;20.92;;;9.00;;
68140;SDS011;54941;52.220;104.306;2023-02-28T01:37:50;31.15;;;13.57;;
68140;SDS011;54941;52.220;104.306;2023-02-28T01:40:17;33.08;;;15.35;;
68140;SDS011;54941;52.220;104.306;2023-02-28T01:42:43;28.65;;;13.98;;
68140;SDS011;54941;52.220;104.306;2023-02-28T01:45:22;25.05;;;12.23;;
68140;SDS011;54941;52.220;104.306;2023-02-28T01:47:51;18.08;;;9.13;;
68140;SDS011;54941;52.220;104.306;2023-02-28T01:50:23;29.42;;;13.70;;
68140;SDS011;54941;52.220;104.306;2023-02-28T01:52:52;18.50;;;10.13;;
68140;SDS011;54941;52.220;104.306;2023-02-28T01:55:22;42.05;;;15.43;;
68140;SDS011;54941;52.220;104.306;2023-02-28T01:57:52;34.75;;;16.27;;
68140;SDS011;54941;52.220;104.306;2023-02-28T02:00:24;33.25;;;16.70;;
68140;SDS011;54941;52.220;104.306;2023-02-28T02:02:53;30.58;;;16.17;;
68140;SDS011;54941;52.220;104.306;2023-02-28T02:05:23;27.63;;;12.07;;
68140;SDS011;54941;52.220;104.306;2023-02-28T02:07:52;29.00;;;14.85;;
68140;SDS011;54941;52.220;104.306;2023-02-28T02:10:23;37.83;;;17.58;;
68140;SDS011;54941;52.220;104.306;2023-02-28T02:13:00;35.97;;;16.65;;
68140;SDS011;54941;52.220;104.306;2023-02-28T02:15:56;30.48;;;15.10;;
68140;SDS011;54941;52.220;104.306;2023-02-28T02:18:31;33.53;;;14.45;;
68140;SDS011;54941;52.220;104.306;2023-02-28T02:21:08;27.30;;;13.18;;
68140;SDS011;54941;52.220;104.306;2023-02-28T02:24:03;35.90;;;15.75;;
68140;SDS011;54941;52.220;104.306;2023-02-28T02:27:04;13.35;;;7.43;;
68140;SDS011;54941;52.220;104.306;2023-02-28T02:35:53;19.80;;;9.65;;
68140;SDS011;54941;52.220;104.306;2023-02-28T02:38:28;25.00;;;11.68;;
68140;SDS011;54941;52.220;104.306;2023-02-28T02:41:04;20.42;;;9.60;;
68140;SDS011;54941;52.220;104.306;2023-02-28T02:43:35;26.27;;;12.35;;
68140;SDS011;54941;52.220;104.306;2023-02-28T02:46:06;19.95;;;11.23;;
68140;SDS011;54941;52.220;104.306;2023-02-28T02:48:38;24.90;;;12.23;;
68140;SDS011;54941;52.220;104.306;2023-02-28T02:53:37;24.25;;;10.63;;
68140;SDS011;54941;52.220;104.306;2023-02-28T02:56:07;27.52;;;11.60;;
68140;SDS011;54941;52.220;104.306;2023-02-28T02:58:35;25.75;;;12.30;;
68140;SDS011;54941;52.220;104.306;2023-02-28T03:01:06;23.73;;;12.55;;
68140;SDS011;54941;52.220;104.306;2023-02-28T03:03:34;31.58;;;14.38;;
68140;SDS011;54941;52.220;104.306;2023-02-28T03:06:02;32.47;;;14.23;;
68140;SDS011;54941;52.220;104.306;2023-02-28T03:08:36;23.60;;;11.57;;
68140;SDS011;54941;52.220;104.306;2023-02-28T03:11:04;28.33;;;13.52;;
68140;SDS011;54941;52.220;104.306;2023-02-28T03:13:42;25.92;;;11.57;;
68140;SDS011;54941;52.220;104.306;2023-02-28T03:16:26;26.70;;;12.73;;
68140;SDS011;54941;52.220;104.306;2023-02-28T03:19:01;27.95;;;15.10;;
68140;SDS011;54941;52.220;104.306;2023-02-28T03:24:05;14.95;;;8.60;;
68140;SDS011;54941;52.220;104.306;2023-02-28T03:26:37;30.02;;;13.75;;
68140;SDS011;54941;52.220;104.306;2023-02-28T03:29:08;26.73;;;12.05;;
68140;SDS011;54941;52.220;104.306;2023-02-28T03:31:39;35.90;;;14.68;;
68140;SDS011;54941;52.220;104.306;2023-02-28T03:34:10;24.35;;;12.57;;
68140;SDS011;54941;52.220;104.306;2023-02-28T03:36:43;30.13;;;13.30;;
68140;SDS011;54941;52.220;104.306;2023-02-28T03:39:16;28.58;;;15.00;;
68140;SDS011;54941;52.220;104.306;2023-02-28T03:41:46;28.13;;;16.67;;
68140;SDS011;54941;52.220;104.306;2023-02-28T03:44:18;20.60;;;11.82;;
68140;SDS011;54941;52.220;104.306;2023-02-28T03:46:51;23.50;;;12.18;;
68140;SDS011;54941;52.220;104.306;2023-02-28T03:49:25;18.48;;;9.63;;
68140;SDS011;54941;52.220;104.306;2023-02-28T03:51:56;23.38;;;10.20;;
68140;SDS011;54941;52.220;104.306;2023-02-28T03:54:29;20.20;;;11.00;;
68140;SDS011;54941;52.220;104.306;2023-02-28T03:56:59;21.80;;;9.23;;
68140;SDS011;54941;52.220;104.306;2023-02-28T03:59:31;20.75;;;10.35;;
68140;SDS011;54941;52.220;104.306;2023-02-28T04:02:02;23.13;;;10.07;;
68140;SDS011;54941;52.220;104.306;2023-02-28T04:04:29;20.05;;;9.57;;
68140;SDS011;54941;52.220;104.306;2023-02-28T04:07:00;19.40;;;8.30;;
68140;SDS011;54941;52.220;104.306;2023-02-28T04:09:29;18.83;;;9.30;;
68140;SDS011;54941;52.220;104.306;2023-02-28T04:11:55;18.13;;;8.90;;
68140;SDS011;54941;52.220;104.306;2023-02-28T04:14:22;19.02;;;9.23;;
68140;SDS011;54941;52.220;104.306;2023-02-28T04:16:49;16.52;;;8.68;;
68140;SDS011;54941;52.220;104.306;2023-02-28T04:19:15;16.80;;;8.23;;
68140;SDS011;54941;52.220;104.306;2023-02-28T04:21:42;16.27;;;8.27;;
68140;SDS011;54941;52.220;104.306;2023-02-28T04:24:10;13.32;;;7.43;;
68140;SDS011;54941;52.220;104.306;2023-02-28T04:26:40;20.33;;;8.82;;
68140;SDS011;54941;52.220;104.306;2023-02-28T04:31:34;14.95;;;8.13;;
68140;SDS011;54941;52.220;104.306;2023-02-28T04:34:01;17.52;;;7.40;;
68140;SDS011;54941;52.220;104.306;2023-02-28T04:36:27;15.32;;;7.00;;
68140;SDS011;54941;52.220;104.306;2023-02-28T04:38:54;15.13;;;6.50;;
68140;SDS011;54941;52.220;104.306;2023-02-28T04:41:22;15.80;;;8.43;;
68140;SDS011;54941;52.220;104.306;2023-02-28T04:43:50;13.02;;;6.10;;
68140;SDS011;54941;52.220;104.306;2023-02-28T04:46:17;16.13;;;7.45;;
68140;SDS011;54941;52.220;104.306;2023-02-28T04:48:43;14.80;;;6.40;;
68140;SDS011;54941;52.220;104.306;2023-02-28T04:51:10;14.43;;;6.28;;
68140;SDS011;54941;52.220;104.306;2023-02-28T04:53:38;9.30;;;4.55;;
68140;SDS011;54941;52.220;104.306;2023-02-28T04:56:06;11.73;;;5.80;;
68140;SDS011;54941;52.220;104.306;2023-02-28T04:58:34;10.68;;;5.45;;
68140;SDS011;54941;52.220;104.306;2023-02-28T05:01:06;14.23;;;5.90;;
68140;SDS011;54941;52.220;104.306;2023-02-28T05:03:41;9.98;;;4.20;;
68140;SDS011;54941;52.220;104.306;2023-02-28T05:06:08;9.70;;;5.88;;
68140;SDS011;54941;52.220;104.306;2023-02-28T05:08:34;9.50;;;3.95;;
68140;SDS011;54941;52.220;104.306;2023-02-28T05:11:00;9.45;;;5.20;;
68140;SDS011;54941;52.220;104.306;2023-02-28T05:13:27;12.38;;;5.97;;
68140;SDS011;54941;52.220;104.306;2023-02-28T05:15:54;7.55;;;3.38;;
68140;SDS011;54941;52.220;104.306;2023-02-28T05:18:22;18.05;;;7.47;;
68140;SDS011;54941;52.220;104.306;2023-02-28T05:20:49;12.65;;;6.43;;
68140;SDS011;54941;52.220;104.306;2023-02-28T05:23:15;17.92;;;7.60;;
68140;SDS011;54941;52.220;104.306;2023-02-28T05:25:43;15.75;;;7.70;;
68140;SDS011;54941;52.220;104.306;2023-02-28T05:28:09;14.07;;;6.93;;
68140;SDS011;54941;52.220;104.306;2023-02-28T05:30:36;11.57;;;5.75;;
68140;SDS011;54941;52.220;104.306;2023-02-28T05:33:02;13.18;;;7.03;;
68140;SDS011;54941;52.220;104.306;2023-02-28T05:35:30;14.20;;;5.85;;
68140;SDS011;54941;52.220;104.306;2023-02-28T05:37:57;10.90;;;4.68;;
68140;SDS011;54941;52.220;104.306;2023-02-28T05:40:23;7.68;;;4.03;;
68140;SDS011;54941;52.220;104.306;2023-02-28T05:42:50;14.25;;;6.22;;
68140;SDS011;54941;52.220;104.306;2023-02-28T05:45:16;11.07;;;4.20;;
68140;SDS011;54941;52.220;104.306;2023-02-28T05:47:43;13.07;;;5.97;;
68140;SDS011;54941;52.220;104.306;2023-02-28T05:50:09;16.30;;;6.78;;
68140;SDS011;54941;52.220;104.306;2023-02-28T05:52:37;15.80;;;6.38;;
68140;SDS011;54941;52.220;104.306;2023-02-28T05:55:04;14.30;;;5.82;;
68140;SDS011;54941;52.220;104.306;2023-02-28T05:57:31;14.25;;;5.75;;
68140;SDS011;54941;52.220;104.306;2023-02-28T05:59:58;12.05;;;5.93;;
68140;SDS011;54941;52.220;104.306;2023-02-28T06:02:24;15.13;;;6.18;;
68140;SDS011;54941;52.220;104.306;2023-02-28T06:04:50;15.63;;;6.70;;
68140;SDS011;54941;52.220;104.306;2023-02-28T06:07:17;13.60;;;5.88;;
68140;SDS011;54941;52.220;104.306;2023-02-28T06:09:45;18.25;;;5.72;;
68140;SDS011;54941;52.220;104.306;2023-02-28T06:12:11;14.95;;;5.57;;
68140;SDS011;54941;52.220;104.306;2023-02-28T06:14:37;10.82;;;5.88;;
68140;SDS011;54941;52.220;104.306;2023-02-28T06:17:04;13.80;;;6.13;;
68140;SDS011;54941;52.220;104.306;2023-02-28T06:19:30;15.35;;;5.55;;
68140;SDS011;54941;52.220;104.306;2023-02-28T06:21:57;16.17;;;6.15;;
68140;SDS011;54941;52.220;104.306;2023-02-28T06:24:24;17.95;;;7.07;;
68140;SDS011;54941;52.220;104.306;2023-02-28T06:26:52;12.88;;;5.28;;
68140;SDS011;54941;52.220;104.306;2023-02-28T06:29:19;10.63;;;5.40;;
68140;SDS011;54941;52.220;104.306;2023-02-28T06:31:45;11.90;;;5.93;;
68140;SDS011;54941;52.220;104.306;2023-02-28T06:34:12;12.98;;;6.90;;
68140;SDS011;54941;52.220;104.306;2023-02-28T06:36:39;12.65;;;5.05;;
68140;SDS011;54941;52.220;104.306;2023-02-28T06:39:06;15.05;;;6.03;;
68140;SDS011;54941;52.220;104.306;2023-02-28T06:41:33;12.32;;;6.03;;
68140;SDS011;54941;52.220;104.306;2023-02-28T06:44:01;7.95;;;3.85;;
68140;SDS011;54941;52.220;104.306;2023-02-28T06:46:27;13.20;;;4.75;;
68140;SDS011;54941;52.220;104.306;2023-02-28T06:48:54;16.17;;;7.28;;
68140;SDS011;54941;52.220;104.306;2023-02-28T06:51:20;13.07;;;5.50;;
68140;SDS011;54941;52.220;104.306;2023-02-28T06:53:47;12.68;;;4.80;;
68140;SDS011;54941;52.220;104.306;2023-02-28T06:56:14;15.07;;;6.78;;
68140;SDS011;54941;52.220;104.306;2023-02-28T06:58:41;11.88;;;6.28;;
68140;SDS011;54941;52.220;104.306;2023-02-28T07:01:13;14.50;;;6.45;;
68140;SDS011;54941;52.220;104.306;2023-02-28T07:03:39;13.65;;;6.45;;
68140;SDS011;54941;52.220;104.306;2023-02-28T07:06:06;12.35;;;5.47;;
68140;SDS011;54941;52.220;104.306;2023-02-28T07:08:32;14.93;;;6.80;;
68140;SDS011;54941;52.220;104.306;2023-02-28T07:10:59;15.05;;;7.15;;
68140;SDS011;54941;52.220;104.306;2023-02-28T07:13:25;18.38;;;7.28;;
68140;SDS011;54941;52.220;104.306;2023-02-28T07:15:55;14.90;;;6.72;;
68140;SDS011;54941;52.220;104.306;2023-02-28T07:18:25;13.05;;;5.97;;
68140;SDS011;54941;52.220;104.306;2023-02-28T07:20:52;8.13;;;4.25;;
68140;SDS011;54941;52.220;104.306;2023-02-28T07:23:18;11.20;;;3.97;;
68140;SDS011;54941;52.220;104.306;2023-02-28T07:25:45;10.13;;;5.15;;
68140;SDS011;54941;52.220;104.306;2023-02-28T07:28:11;11.43;;;5.28;;
68140;SDS011;54941;52.220;104.306;2023-02-28T07:30:38;9.00;;;4.57;;
68140;SDS011;54941;52.220;104.306;2023-02-28T07:33:05;13.43;;;6.15;;
68140;SDS011;54941;52.220;104.306;2023-02-28T07:35:33;12.70;;;5.68;;
68140;SDS011;54941;52.220;104.306;2023-02-28T07:37:59;12.05;;;5.43;;
68140;SDS011;54941;52.220;104.306;2023-02-28T07:40:26;9.48;;;4.80;;
68140;SDS011;54941;52.220;104.306;2023-02-28T07:42:52;10.27;;;5.50;;
68140;SDS011;54941;52.220;104.306;2023-02-28T07:45:19;12.40;;;5.18;;
68140;SDS011;54941;52.220;104.306;2023-02-28T07:47:45;13.52;;;5.50;;
68140;SDS011;54941;52.220;104.306;2023-02-28T07:50:14;12.57;;;5.22;;
68140;SDS011;54941;52.220;104.306;2023-02-28T07:52:42;9.85;;;5.03;;
68140;SDS011;54941;52.220;104.306;2023-02-28T07:55:09;12.98;;;5.60;;
68140;SDS011;54941;52.220;104.306;2023-02-28T07:57:36;13.75;;;5.57;;
68140;SDS011;54941;52.220;104.306;2023-02-28T08:00:03;12.80;;;5.40;;
68140;SDS011;54941;52.220;104.306;2023-02-28T08:02:31;10.77;;;5.35;;
68140;SDS011;54941;52.220;104.306;2023-02-28T08:04:57;10.98;;;5.43;;
68140;SDS011;54941;52.220;104.306;2023-02-28T08:07:25;10.02;;;4.68;;
68140;SDS011;54941;52.220;104.306;2023-02-28T08:09:53;9.80;;;4.70;;
68140;SDS011;54941;52.220;104.306;2023-02-28T08:12:19;9.25;;;5.15;;
68140;SDS011;54941;52.220;104.306;2023-02-28T08:14:46;11.32;;;5.72;;
68140;SDS011;54941;52.220;104.306;2023-02-28T08:17:12;11.70;;;4.78;;
68140;SDS011;54941;52.220;104.306;2023-02-28T08:19:39;13.32;;;4.50;;
68140;SDS011;54941;52.220;104.306;2023-02-28T08:22:05;11.52;;;5.60;;
68140;SDS011;54941;52.220;104.306;2023-02-28T08:24:31;11.63;;;5.80;;
68140;SDS011;54941;52.220;104.306;2023-02-28T08:27:01;12.40;;;5.85;;
68140;SDS011;54941;52.220;104.306;2023-02-28T08:29:27;8.88;;;5.15;;
68140;SDS011;54941;52.220;104.306;2023-02-28T08:31:54;11.15;;;5.15;;
68140;SDS011;54941;52.220;104.306;2023-02-28T08:34:20;12.75;;;5.93;;
68140;SDS011;54941;52.220;104.306;2023-02-28T08:36:47;11.02;;;5.78;;
68140;SDS011;54941;52.220;104.306;2023-02-28T08:39:13;13.52;;;6.40;;
68140;SDS011;54941;52.220;104.306;2023-02-28T08:41:39;11.27;;;5.20;;
68140;SDS011;54941;52.220;104.306;2023-02-28T08:44:09;12.50;;;5.57;;
68140;SDS011;54941;52.220;104.306;2023-02-28T08:46:35;11.32;;;5.35;;
68140;SDS011;54941;52.220;104.306;2023-02-28T08:49:01;11.82;;;5.03;;
68140;SDS011;54941;52.220;104.306;2023-02-28T08:51:28;12.85;;;6.07;;
68140;SDS011;54941;52.220;104.306;2023-02-28T08:53:55;12.73;;;6.25;;
68140;SDS011;54941;52.220;104.306;2023-02-28T08:56:24;11.88;;;6.55;;
68140;SDS011;54941;52.220;104.306;2023-02-28T08:58:52;13.55;;;6.15;;
68140;SDS011;54941;52.220;104.306;2023-02-28T09:01:22;14.77;;;7.45;;
68140;SDS011;54941;52.220;104.306;2023-02-28T09:03:50;10.52;;;4.97;;
68140;SDS011;54941;52.220;104.306;2023-02-28T09:06:17;13.00;;;5.30;;
68140;SDS011;54941;52.220;104.306;2023-02-28T09:08:45;12.65;;;5.45;;
68140;SDS011;54941;52.220;104.306;2023-02-28T09:11:11;17.35;;;5.55;;
68140;SDS011;54941;52.220;104.306;2023-02-28T09:13:38;10.95;;;5.78;;
68140;SDS011;54941;52.220;104.306;2023-02-28T09:16:05;9.32;;;5.40;;
68140;SDS011;54941;52.220;104.306;2023-02-28T09:18:35;11.55;;;6.53;;
68140;SDS011;54941;52.220;104.306;2023-02-28T09:21:02;16.02;;;6.35;;
68140;SDS011;54941;52.220;104.306;2023-02-28T09:23:29;13.45;;;6.13;;
68140;SDS011;54941;52.220;104.306;2023-02-28T09:25:56;10.00;;;5.47;;
68140;SDS011;54941;52.220;104.306;2023-02-28T09:28:22;14.35;;;6.35;;
68140;SDS011;54941;52.220;104.306;2023-02-28T09:30:49;12.27;;;5.68;;
68140;SDS011;54941;52.220;104.306;2023-02-28T09:33:17;11.32;;;5.18;;
68140;SDS011;54941;52.220;104.306;2023-02-28T09:35:45;10.73;;;4.57;;
68140;SDS011;54941;52.220;104.306;2023-02-28T09:38:12;13.50;;;5.35;;
68140;SDS011;54941;52.220;104.306;2023-02-28T09:40:39;12.98;;;5.00;;
68140;SDS011;54941;52.220;104.306;2023-02-28T09:43:12;9.13;;;5.10;;
68140;SDS011;54941;52.220;104.306;2023-02-28T09:45:41;10.90;;;5.28;;
68140;SDS011;54941;52.220;104.306;2023-02-28T09:48:12;13.95;;;6.03;;
68140;SDS011;54941;52.220;104.306;2023-02-28T09:50:42;10.82;;;5.18;;
68140;SDS011;54941;52.220;104.306;2023-02-28T09:53:14;8.40;;;4.35;;
68140;SDS011;54941;52.220;104.306;2023-02-28T09:55:48;11.15;;;5.63;;
68140;SDS011;54941;52.220;104.306;2023-02-28T09:58:19;10.25;;;5.10;;
68140;SDS011;54941;52.220;104.306;2023-02-28T10:00:50;12.07;;;5.13;;
68140;SDS011;54941;52.220;104.306;2023-02-28T10:03:25;9.85;;;5.15;;
68140;SDS011;54941;52.220;104.306;2023-02-28T10:05:58;10.23;;;4.88;;
68140;SDS011;54941;52.220;104.306;2023-02-28T10:08:33;11.60;;;5.20;;
68140;SDS011;54941;52.220;104.306;2023-02-28T10:11:06;11.60;;;5.40;;
68140;SDS011;54941;52.220;104.306;2023-02-28T10:13:34;13.32;;;6.30;;
68140;SDS011;54941;52.220;104.306;2023-02-28T10:16:04;8.45;;;4.00;;
68140;SDS011;54941;52.220;104.306;2023-02-28T10:18:37;13.18;;;5.32;;
68140;SDS011;54941;52.220;104.306;2023-02-28T10:21:11;13.05;;;4.35;;
68140;SDS011;54941;52.220;104.306;2023-02-28T10:23:45;11.55;;;4.53;;
68140;SDS011;54941;52.220;104.306;2023-02-28T10:26:14;14.98;;;6.57;;
68140;SDS011;54941;52.220;104.306;2023-02-28T10:28:42;9.57;;;5.60;;
68140;SDS011;54941;52.220;104.306;2023-02-28T10:31:10;9.23;;;4.70;;
68140;SDS011;54941;52.220;104.306;2023-02-28T10:33:40;9.77;;;6.22;;
68140;SDS011;54941;52.220;104.306;2023-02-28T10:36:08;12.25;;;5.90;;
68140;SDS011;54941;52.220;104.306;2023-02-28T10:38:39;14.70;;;7.97;;
68140;SDS011;54941;52.220;104.306;2023-02-28T10:41:07;13.00;;;5.40;;
68140;SDS011;54941;52.220;104.306;2023-02-28T10:43:34;12.15;;;6.03;;
68140;SDS011;54941;52.220;104.306;2023-02-28T10:46:02;13.60;;;6.72;;
68140;SDS011;54941;52.220;104.306;2023-02-28T10:48:36;12.48;;;6.03;;
68140;SDS011;54941;52.220;104.306;2023-02-28T10:51:05;14.02;;;7.43;;
68140;SDS011;54941;52.220;104.306;2023-02-28T10:53:39;13.70;;;6.63;;
68140;SDS011;54941;52.220;104.306;2023-02-28T10:56:15;16.02;;;7.22;;
68140;SDS011;54941;52.220;104.306;2023-02-28T10:58:50;14.80;;;6.43;;
68140;SDS011;54941;52.220;104.306;2023-02-28T11:01:19;11.02;;;5.10;;
68140;SDS011;54941;52.220;104.306;2023-02-28T11:03:47;10.32;;;5.50;;
68140;SDS011;54941;52.220;104.306;2023-02-28T11:06:15;8.38;;;4.05;;
68140;SDS011;54941;52.220;104.306;2023-02-28T11:08:47;10.40;;;5.35;;
68140;SDS011;54941;52.220;104.306;2023-02-28T11:11:16;11.23;;;5.53;;
68140;SDS011;54941;52.220;104.306;2023-02-28T11:13:43;14.70;;;7.07;;
68140;SDS011;54941;52.220;104.306;2023-02-28T11:16:12;11.27;;;6.50;;
68140;SDS011;54941;52.220;104.306;2023-02-28T11:18:40;13.73;;;6.65;;
68140;SDS011;54941;52.220;104.306;2023-02-28T11:21:15;9.80;;;5.00;;
68140;SDS011;54941;52.220;104.306;2023-02-28T11:23:46;13.10;;;6.45;;
68140;SDS011;54941;52.220;104.306;2023-02-28T11:26:15;11.95;;;6.55;;
68140;SDS011;54941;52.220;104.306;2023-02-28T11:29:03;13.15;;;6.20;;
68140;SDS011;54941;52.220;104.306;2023-02-28T11:31:43;15.20;;;7.25;;
68140;SDS011;54941;52.220;104.306;2023-02-28T11:34:22;21.33;;;9.18;;
68140;SDS011;54941;52.220;104.306;2023-02-28T11:36:50;18.73;;;7.72;;
68140;SDS011;54941;52.220;104.306;2023-02-28T11:39:20;35.05;;;14.13;;
68140;SDS011;54941;52.220;104.306;2023-02-28T11:45:24;18.27;;;8.55;;
68140;SDS011;54941;52.220;104.306;2023-02-28T11:53:33;27.23;;;11.38;;
68140;SDS011;54941;52.220;104.306;2023-02-28T11:56:13;25.98;;;10.77;;
68140;SDS011;54941;52.220;104.306;2023-02-28T11:58:48;55.42;;;21.58;;
68140;SDS011;54941;52.220;104.306;2023-02-28T12:01:26;40.63;;;15.90;;
68140;SDS011;54941;52.220;104.306;2023-02-28T12:04:09;31.15;;;12.07;;
68140;SDS011;54941;52.220;104.306;2023-02-28T12:06:44;52.90;;;21.58;;
68140;SDS011;54941;52.220;104.306;2023-02-28T12:09:23;45.80;;;19.25;;
68140;SDS011;54941;52.220;104.306;2023-02-28T12:12:07;51.75;;;20.48;;
68140;SDS011;54941;52.220;104.306;2023-02-28T12:17:40;18.38;;;10.23;;
68140;SDS011;54941;52.220;104.306;2023-02-28T12:20:18;22.63;;;10.95;;
68140;SDS011;54941;52.220;104.306;2023-02-28T12:22:53;15.45;;;7.60;;
68140;SDS011;54941;52.220;104.306;2023-02-28T12:30:47;17.83;;;8.38;;
68140;SDS011;54941;52.220;104.306;2023-02-28T12:33:19;17.92;;;7.72;;
68140;SDS011;54941;52.220;104.306;2023-02-28T12:35:51;20.95;;;9.45;;
68140;SDS011;54941;52.220;104.306;2023-02-28T12:38:20;21.17;;;9.65;;
68140;SDS011;54941;52.220;104.306;2023-02-28T12:43:19;18.00;;;10.10;;
68140;SDS011;54941;52.220;104.306;2023-02-28T12:48:18;19.25;;;9.13;;
68140;SDS011;54941;52.220;104.306;2023-02-28T12:50:51;20.77;;;7.80;;
68140;SDS011;54941;52.220;104.306;2023-02-28T12:53:20;17.45;;;7.78;;
68140;SDS011;54941;52.220;104.306;2023-02-28T12:55:56;16.80;;;6.70;;
68140;SDS011;54941;52.220;104.306;2023-02-28T12:58:35;16.63;;;7.13;;
68140;SDS011;54941;52.220;104.306;2023-02-28T13:01:11;17.02;;;6.80;;
68140;SDS011;54941;52.220;104.306;2023-02-28T13:09:41;21.23;;;8.25;;
68140;SDS011;54941;52.220;104.306;2023-02-28T13:12:18;15.57;;;6.88;;
68140;SDS011;54941;52.220;104.306;2023-02-28T13:14:46;18.30;;;8.23;;
68140;SDS011;54941;52.220;104.306;2023-02-28T13:17:14;16.77;;;7.95;;
68140;SDS011;54941;52.220;104.306;2023-02-28T13:19:45;18.30;;;7.22;;
68140;SDS011;54941;52.220;104.306;2023-02-28T13:22:36;14.90;;;7.28;;
68140;SDS011;54941;52.220;104.306;2023-02-28T13:25:16;17.05;;;7.05;;
68140;SDS011;54941;52.220;104.306;2023-02-28T13:31:33;12.68;;;7.38;;
68140;SDS011;54941;52.220;104.306;2023-02-28T13:34:38;15.48;;;6.72;;
68140;SDS011;54941;52.220;104.306;2023-02-28T13:40:06;17.45;;;6.97;;
68140;SDS011;54941;52.220;104.306;2023-02-28T13:42:48;15.75;;;7.32;;
68140;SDS011;54941;52.220;104.306;2023-02-28T13:45:22;16.50;;;6.72;;
68140;SDS011;54941;52.220;104.306;2023-02-28T13:47:55;14.68;;;5.90;;
68140;SDS011;54941;52.220;104.306;2023-02-28T13:50:31;15.30;;;6.93;;
68140;SDS011;54941;52.220;104.306;2023-02-28T13:56:02;14.75;;;6.22;;
68140;SDS011;54941;52.220;104.306;2023-02-28T13:58:37;10.10;;;5.53;;
68140;SDS011;54941;52.220;104.306;2023-02-28T14:01:13;15.98;;;5.68;;
68140;SDS011;54941;52.220;104.306;2023-02-28T14:06:53;11.65;;;5.75;;
68140;SDS011;54941;52.220;104.306;2023-02-28T14:09:23;13.68;;;6.60;;
68140;SDS011;54941;52.220;104.306;2023-02-28T14:11:51;11.30;;;4.90;;
68140;SDS011;54941;52.220;104.306;2023-02-28T14:17:20;17.50;;;5.35;;
68140;SDS011;54941;52.220;104.306;2023-02-28T14:19:48;11.48;;;5.60;;
68140;SDS011;54941;52.220;104.306;2023-02-28T14:22:17;9.18;;;4.63;;
68140;SDS011;54941;52.220;104.306;2023-02-28T14:25:07;10.88;;;4.68;;
68140;SDS011;54941;52.220;104.306;2023-02-28T14:27:38;14.65;;;5.78;;
68140;SDS011;54941;52.220;104.306;2023-02-28T14:33:13;10.68;;;4.80;;
68140;SDS011;54941;52.220;104.306;2023-02-28T14:35:51;10.85;;;5.25;;
68140;SDS011;54941;52.220;104.306;2023-02-28T14:38:29;12.35;;;5.95;;
68140;SDS011;54941;52.220;104.306;2023-02-28T14:41:00;11.07;;;5.88;;
68140;SDS011;54941;52.220;104.306;2023-02-28T14:43:31;10.60;;;5.28;;
68140;SDS011;54941;52.220;104.306;2023-02-28T14:45:59;9.02;;;4.68;;
68140;SDS011;54941;52.220;104.306;2023-02-28T14:48:27;10.52;;;5.47;;
68140;SDS011;54941;52.220;104.306;2023-02-28T14:50:54;13.13;;;4.85;;
68140;SDS011;54941;52.220;104.306;2023-02-28T14:53:23;11.93;;;4.65;;
68140;SDS011;54941;52.220;104.306;2023-02-28T14:55:55;15.93;;;6.80;;
68140;SDS011;54941;52.220;104.306;2023-02-28T14:58:23;11.38;;;4.72;;
68140;SDS011;54941;52.220;104.306;2023-02-28T15:00:52;7.75;;;4.68;;
68140;SDS011;54941;52.220;104.306;2023-02-28T15:03:21;10.43;;;5.40;;
68140;SDS011;54941;52.220;104.306;2023-02-28T15:05:53;14.07;;;5.70;;
68140;SDS011;54941;52.220;104.306;2023-02-28T15:08:20;9.50;;;5.13;;
68140;SDS011;54941;52.220;104.306;2023-02-28T15:10:50;10.65;;;5.20;;
68140;SDS011;54941;52.220;104.306;2023-02-28T15:13:20;10.98;;;5.05;;
68140;SDS011;54941;52.220;104.306;2023-02-28T15:15:49;9.48;;;4.57;;
68140;SDS011;54941;52.220;104.306;2023-02-28T15:18:22;8.90;;;4.70;;
68140;SDS011;54941;52.220;104.306;2023-02-28T15:20:55;9.25;;;3.70;;
68140;SDS011;54941;52.220;104.306;2023-02-28T15:23:24;13.98;;;5.38;;